sensor_id;sensor_type;location;lat;lon;timestamp;P1;durP1;ratioP1;P2;durP2;ratioP2
23884;SDS011;12123;53.088;7.392;2022-09-09T00:04:37;27.63;;;16.25;;
23884;SDS011;12123;53.088;7.392;2022-09-09T00:07:16;23.05;;;15.23;;
23884;SDS011;12123;53.088;7.392;2022-09-09T00:09:53;28.08;;;16.33;;
23884;SDS011;12123;53.088;7.392;2022-09-09T00:12:34;30.97;;;17.17;;
23884;SDS011;12123;53.088;7.392;2022-09-09T00:18:07;26.85;;;17.65;;
23884;SDS011;12123;53.088;7.392;2022-09-09T00:20:40;26.85;;;16.90;;
23884;SDS011;12123;53.088;7.392;2022-09-09T00:23:14;26.65;;;17.90;;
23884;SDS011;12123;53.088;7.392;2022-09-09T00:28:28;30.27;;;17.70;;
23884;SDS011;12123;53.088;7.392;2022-09-09T00:31:08;29.80;;;19.27;;
23884;SDS011;12123;53.088;7.392;2022-09-09T00:33:38;32.72;;;19.42;;
23884;SDS011;12123;53.088;7.392;2022-09-09T00:36:09;35.38;;;20.20;;
23884;SDS011;12123;53.088;7.392;2022-09-09T00:38:41;30.35;;;19.48;;
23884;SDS011;12123;53.088;7.392;2022-09-09T00:41:22;28.58;;;19.52;;
23884;SDS011;12123;53.088;7.392;2022-09-09T00:46:44;31.45;;;19.17;;
23884;SDS011;12123;53.088;7.392;2022-09-09T00:59:47;29.42;;;17.95;;
23884;SDS011;12123;53.088;7.392;2022-09-09T01:02:35;23.70;;;16.60;;
23884;SDS011;12123;53.088;7.392;2022-09-09T01:05:10;30.73;;;18.10;;
23884;SDS011;12123;53.088;7.392;2022-09-09T01:07:38;34.47;;;17.55;;
23884;SDS011;12123;53.088;7.392;2022-09-09T01:10:09;25.02;;;17.13;;
23884;SDS011;12123;53.088;7.392;2022-09-09T01:12:43;26.38;;;18.27;;
23884;SDS011;12123;53.088;7.392;2022-09-09T01:20:29;27.17;;;17.77;;
23884;SDS011;12123;53.088;7.392;2022-09-09T01:23:16;26.13;;;18.13;;
23884;SDS011;12123;53.088;7.392;2022-09-09T01:28:32;28.67;;;18.00;;
23884;SDS011;12123;53.088;7.392;2022-09-09T01:31:02;23.77;;;16.00;;
23884;SDS011;12123;53.088;7.392;2022-09-09T01:33:30;27.42;;;17.00;;
23884;SDS011;12123;53.088;7.392;2022-09-09T01:35:59;26.58;;;15.88;;
23884;SDS011;12123;53.088;7.392;2022-09-09T01:38:27;23.48;;;16.00;;
23884;SDS011;12123;53.088;7.392;2022-09-09T01:40:55;26.85;;;16.02;;
23884;SDS011;12123;53.088;7.392;2022-09-09T01:43:24;28.15;;;16.20;;
23884;SDS011;12123;53.088;7.392;2022-09-09T01:45:53;25.48;;;16.83;;
23884;SDS011;12123;53.088;7.392;2022-09-09T01:48:24;25.15;;;16.08;;
23884;SDS011;12123;53.088;7.392;2022-09-09T01:50:51;24.67;;;15.07;;
23884;SDS011;12123;53.088;7.392;2022-09-09T01:53:19;24.55;;;15.77;;
23884;SDS011;12123;53.088;7.392;2022-09-09T02:03:36;22.40;;;15.38;;
23884;SDS011;12123;53.088;7.392;2022-09-09T02:08:43;24.67;;;14.93;;
23884;SDS011;12123;53.088;7.392;2022-09-09T02:13:40;26.98;;;15.73;;
23884;SDS011;12123;53.088;7.392;2022-09-09T02:16:08;29.00;;;14.75;;
23884;SDS011;12123;53.088;7.392;2022-09-09T02:18:44;25.88;;;15.13;;
23884;SDS011;12123;53.088;7.392;2022-09-09T02:21:12;27.40;;;14.80;;
23884;SDS011;12123;53.088;7.392;2022-09-09T02:23:40;33.15;;;15.80;;
23884;SDS011;12123;53.088;7.392;2022-09-09T02:26:08;23.67;;;14.90;;
23884;SDS011;12123;53.088;7.392;2022-09-09T02:28:37;22.30;;;13.77;;
23884;SDS011;12123;53.088;7.392;2022-09-09T02:31:05;17.77;;;13.05;;
23884;SDS011;12123;53.088;7.392;2022-09-09T02:33:42;22.48;;;13.63;;
23884;SDS011;12123;53.088;7.392;2022-09-09T02:36:11;21.27;;;13.57;;
23884;SDS011;12123;53.088;7.392;2022-09-09T02:38:40;19.80;;;13.75;;
23884;SDS011;12123;53.088;7.392;2022-09-09T02:41:09;21.90;;;11.90;;
23884;SDS011;12123;53.088;7.392;2022-09-09T02:43:37;22.90;;;13.32;;
23884;SDS011;12123;53.088;7.392;2022-09-09T02:56:30;25.73;;;11.57;;
23884;SDS011;12123;53.088;7.392;2022-09-09T02:59:02;16.25;;;11.00;;
23884;SDS011;12123;53.088;7.392;2022-09-09T03:01:30;19.17;;;11.27;;
23884;SDS011;12123;53.088;7.392;2022-09-09T03:03:58;26.00;;;11.55;;
23884;SDS011;12123;53.088;7.392;2022-09-09T03:06:25;15.30;;;11.48;;
23884;SDS011;12123;53.088;7.392;2022-09-09T03:08:53;22.38;;;10.00;;
23884;SDS011;12123;53.088;7.392;2022-09-09T03:11:20;17.23;;;10.00;;
23884;SDS011;12123;53.088;7.392;2022-09-09T03:13:47;14.80;;;10.43;;
23884;SDS011;12123;53.088;7.392;2022-09-09T03:16:15;16.15;;;11.50;;
23884;SDS011;12123;53.088;7.392;2022-09-09T03:18:42;16.83;;;10.73;;
23884;SDS011;12123;53.088;7.392;2022-09-09T03:21:12;24.27;;;11.10;;
23884;SDS011;12123;53.088;7.392;2022-09-09T03:23:39;17.45;;;11.43;;
23884;SDS011;12123;53.088;7.392;2022-09-09T03:26:07;19.98;;;10.68;;
23884;SDS011;12123;53.088;7.392;2022-09-09T03:28:34;17.13;;;10.18;;
23884;SDS011;12123;53.088;7.392;2022-09-09T03:31:02;18.67;;;10.32;;
23884;SDS011;12123;53.088;7.392;2022-09-09T03:33:30;17.70;;;10.48;;
23884;SDS011;12123;53.088;7.392;2022-09-09T03:35:57;19.65;;;10.50;;
23884;SDS011;12123;53.088;7.392;2022-09-09T03:38:24;22.90;;;10.63;;
23884;SDS011;12123;53.088;7.392;2022-09-09T03:40:55;15.68;;;10.38;;
23884;SDS011;12123;53.088;7.392;2022-09-09T03:43:24;21.92;;;11.63;;
23884;SDS011;12123;53.088;7.392;2022-09-09T03:45:52;19.00;;;10.98;;
23884;SDS011;12123;53.088;7.392;2022-09-09T03:48:23;19.33;;;11.80;;
23884;SDS011;12123;53.088;7.392;2022-09-09T03:50:51;20.10;;;11.30;;
23884;SDS011;12123;53.088;7.392;2022-09-09T03:53:19;19.02;;;11.18;;
23884;SDS011;12123;53.088;7.392;2022-09-09T03:55:47;18.13;;;10.85;;
23884;SDS011;12123;53.088;7.392;2022-09-09T03:58:15;17.13;;;11.48;;
23884;SDS011;12123;53.088;7.392;2022-09-09T04:00:54;23.95;;;12.20;;
23884;SDS011;12123;53.088;7.392;2022-09-09T04:03:22;26.00;;;12.88;;
23884;SDS011;12123;53.088;7.392;2022-09-09T04:05:54;21.70;;;12.90;;
23884;SDS011;12123;53.088;7.392;2022-09-09T04:08:21;23.15;;;12.57;;
23884;SDS011;12123;53.088;7.392;2022-09-09T04:10:51;26.38;;;11.88;;
23884;SDS011;12123;53.088;7.392;2022-09-09T04:13:19;19.90;;;12.20;;
23884;SDS011;12123;53.088;7.392;2022-09-09T04:15:53;18.23;;;12.50;;
23884;SDS011;12123;53.088;7.392;2022-09-09T04:18:21;21.83;;;12.67;;
23884;SDS011;12123;53.088;7.392;2022-09-09T04:20:49;23.75;;;12.38;;
23884;SDS011;12123;53.088;7.392;2022-09-09T04:23:17;24.25;;;11.80;;
23884;SDS011;12123;53.088;7.392;2022-09-09T04:25:48;17.65;;;13.02;;
23884;SDS011;12123;53.088;7.392;2022-09-09T04:28:16;25.27;;;12.98;;
23884;SDS011;12123;53.088;7.392;2022-09-09T04:30:44;20.42;;;11.48;;
23884;SDS011;12123;53.088;7.392;2022-09-09T04:33:11;23.13;;;11.40;;
23884;SDS011;12123;53.088;7.392;2022-09-09T04:35:39;18.27;;;11.40;;
23884;SDS011;12123;53.088;7.392;2022-09-09T04:38:10;18.13;;;11.25;;
23884;SDS011;12123;53.088;7.392;2022-09-09T04:40:37;22.02;;;12.55;;
23884;SDS011;12123;53.088;7.392;2022-09-09T04:43:09;19.20;;;11.52;;
23884;SDS011;12123;53.088;7.392;2022-09-09T04:45:40;17.63;;;11.27;;
23884;SDS011;12123;53.088;7.392;2022-09-09T04:48:07;20.95;;;12.20;;
23884;SDS011;12123;53.088;7.392;2022-09-09T04:50:35;22.02;;;11.25;;
23884;SDS011;12123;53.088;7.392;2022-09-09T04:53:03;19.40;;;10.88;;
23884;SDS011;12123;53.088;7.392;2022-09-09T04:55:31;19.33;;;10.10;;
23884;SDS011;12123;53.088;7.392;2022-09-09T04:58:02;16.88;;;10.93;;
23884;SDS011;12123;53.088;7.392;2022-09-09T05:00:29;13.82;;;9.38;;
23884;SDS011;12123;53.088;7.392;2022-09-09T05:02:57;18.17;;;9.40;;
23884;SDS011;12123;53.088;7.392;2022-09-09T05:05:24;15.70;;;9.30;;
23884;SDS011;12123;53.088;7.392;2022-09-09T05:07:51;18.17;;;8.68;;
23884;SDS011;12123;53.088;7.392;2022-09-09T05:10:19;17.88;;;9.70;;
23884;SDS011;12123;53.088;7.392;2022-09-09T05:12:52;14.70;;;8.68;;
23884;SDS011;12123;53.088;7.392;2022-09-09T05:15:20;12.27;;;8.40;;
23884;SDS011;12123;53.088;7.392;2022-09-09T05:17:47;15.52;;;8.52;;
23884;SDS011;12123;53.088;7.392;2022-09-09T05:20:14;14.10;;;8.18;;
23884;SDS011;12123;53.088;7.392;2022-09-09T05:22:42;12.90;;;7.68;;
23884;SDS011;12123;53.088;7.392;2022-09-09T05:25:10;13.63;;;8.38;;
23884;SDS011;12123;53.088;7.392;2022-09-09T05:27:37;14.65;;;8.45;;
23884;SDS011;12123;53.088;7.392;2022-09-09T05:30:04;16.45;;;8.13;;
23884;SDS011;12123;53.088;7.392;2022-09-09T05:32:32;11.77;;;7.65;;
23884;SDS011;12123;53.088;7.392;2022-09-09T05:35:00;13.68;;;8.60;;
23884;SDS011;12123;53.088;7.392;2022-09-09T05:37:27;13.85;;;8.25;;
23884;SDS011;12123;53.088;7.392;2022-09-09T05:39:56;14.38;;;8.23;;
23884;SDS011;12123;53.088;7.392;2022-09-09T05:42:24;12.35;;;8.50;;
23884;SDS011;12123;53.088;7.392;2022-09-09T05:44:51;14.23;;;8.55;;
23884;SDS011;12123;53.088;7.392;2022-09-09T05:47:20;17.50;;;8.82;;
23884;SDS011;12123;53.088;7.392;2022-09-09T05:49:47;17.33;;;9.68;;
23884;SDS011;12123;53.088;7.392;2022-09-09T05:52:15;14.88;;;8.88;;
23884;SDS011;12123;53.088;7.392;2022-09-09T05:54:42;18.90;;;8.57;;
23884;SDS011;12123;53.088;7.392;2022-09-09T05:57:09;12.85;;;8.35;;
23884;SDS011;12123;53.088;7.392;2022-09-09T05:59:37;15.85;;;9.30;;
23884;SDS011;12123;53.088;7.392;2022-09-09T06:02:04;12.38;;;8.63;;
23884;SDS011;12123;53.088;7.392;2022-09-09T06:04:32;11.80;;;8.13;;
23884;SDS011;12123;53.088;7.392;2022-09-09T06:06:59;14.98;;;8.00;;
23884;SDS011;12123;53.088;7.392;2022-09-09T06:09:27;15.18;;;8.25;;
23884;SDS011;12123;53.088;7.392;2022-09-09T06:11:56;12.48;;;8.45;;
23884;SDS011;12123;53.088;7.392;2022-09-09T06:14:24;14.82;;;8.13;;
23884;SDS011;12123;53.088;7.392;2022-09-09T06:16:53;16.05;;;7.95;;
23884;SDS011;12123;53.088;7.392;2022-09-09T06:19:20;16.45;;;9.10;;
23884;SDS011;12123;53.088;7.392;2022-09-09T06:21:47;11.55;;;8.75;;
23884;SDS011;12123;53.088;7.392;2022-09-09T06:24:16;10.90;;;7.97;;
23884;SDS011;12123;53.088;7.392;2022-09-09T06:26:45;11.98;;;7.43;;
23884;SDS011;12123;53.088;7.392;2022-09-09T06:29:12;11.85;;;8.15;;
23884;SDS011;12123;53.088;7.392;2022-09-09T06:31:39;13.15;;;8.27;;
23884;SDS011;12123;53.088;7.392;2022-09-09T06:34:08;16.20;;;8.15;;
23884;SDS011;12123;53.088;7.392;2022-09-09T06:36:36;12.80;;;7.68;;
23884;SDS011;12123;53.088;7.392;2022-09-09T06:39:04;12.18;;;7.78;;
23884;SDS011;12123;53.088;7.392;2022-09-09T06:41:38;11.13;;;7.43;;
23884;SDS011;12123;53.088;7.392;2022-09-09T06:44:06;12.65;;;8.02;;
23884;SDS011;12123;53.088;7.392;2022-09-09T06:46:33;10.30;;;7.43;;
23884;SDS011;12123;53.088;7.392;2022-09-09T06:49:02;10.98;;;6.82;;
23884;SDS011;12123;53.088;7.392;2022-09-09T06:51:30;10.68;;;7.10;;
23884;SDS011;12123;53.088;7.392;2022-09-09T06:53:58;9.10;;;7.18;;
23884;SDS011;12123;53.088;7.392;2022-09-09T06:56:27;8.48;;;7.07;;
23884;SDS011;12123;53.088;7.392;2022-09-09T06:58:56;11.18;;;7.85;;
23884;SDS011;12123;53.088;7.392;2022-09-09T07:01:25;9.23;;;7.15;;
23884;SDS011;12123;53.088;7.392;2022-09-09T07:03:55;11.05;;;7.72;;
23884;SDS011;12123;53.088;7.392;2022-09-09T07:06:24;16.15;;;7.43;;
23884;SDS011;12123;53.088;7.392;2022-09-09T07:08:55;9.80;;;6.93;;
23884;SDS011;12123;53.088;7.392;2022-09-09T07:11:27;9.80;;;6.95;;
23884;SDS011;12123;53.088;7.392;2022-09-09T07:13:56;13.70;;;8.50;;
23884;SDS011;12123;53.088;7.392;2022-09-09T07:16:25;9.57;;;7.25;;
23884;SDS011;12123;53.088;7.392;2022-09-09T07:18:53;10.52;;;7.03;;
23884;SDS011;12123;53.088;7.392;2022-09-09T07:21:25;8.00;;;5.65;;
23884;SDS011;12123;53.088;7.392;2022-09-09T07:23:55;11.35;;;5.93;;
23884;SDS011;12123;53.088;7.392;2022-09-09T07:26:26;6.38;;;5.43;;
23884;SDS011;12123;53.088;7.392;2022-09-09T07:28:54;10.15;;;5.40;;
23884;SDS011;12123;53.088;7.392;2022-09-09T07:31:28;9.57;;;5.30;;
23884;SDS011;12123;53.088;7.392;2022-09-09T07:33:57;6.93;;;4.63;;
23884;SDS011;12123;53.088;7.392;2022-09-09T07:36:27;8.88;;;5.13;;
23884;SDS011;12123;53.088;7.392;2022-09-09T07:39:20;11.50;;;5.40;;
23884;SDS011;12123;53.088;7.392;2022-09-09T07:41:46;7.07;;;4.93;;
23884;SDS011;12123;53.088;7.392;2022-09-09T07:44:15;8.23;;;4.85;;
23884;SDS011;12123;53.088;7.392;2022-09-09T07:46:43;7.95;;;5.05;;
23884;SDS011;12123;53.088;7.392;2022-09-09T07:49:11;7.43;;;4.88;;
23884;SDS011;12123;53.088;7.392;2022-09-09T07:51:40;9.02;;;4.80;;
23884;SDS011;12123;53.088;7.392;2022-09-09T07:54:09;10.43;;;4.82;;
23884;SDS011;12123;53.088;7.392;2022-09-09T07:56:37;6.38;;;4.90;;
23884;SDS011;12123;53.088;7.392;2022-09-09T07:59:06;10.23;;;5.93;;
23884;SDS011;12123;53.088;7.392;2022-09-09T08:01:34;9.38;;;4.97;;
23884;SDS011;12123;53.088;7.392;2022-09-09T08:04:10;7.28;;;4.85;;
23884;SDS011;12123;53.088;7.392;2022-09-09T08:06:42;10.60;;;5.82;;
23884;SDS011;12123;53.088;7.392;2022-09-09T08:09:10;9.07;;;5.00;;
23884;SDS011;12123;53.088;7.392;2022-09-09T08:11:38;9.52;;;4.97;;
23884;SDS011;12123;53.088;7.392;2022-09-09T08:14:06;9.57;;;5.15;;
23884;SDS011;12123;53.088;7.392;2022-09-09T08:16:35;9.18;;;5.47;;
23884;SDS011;12123;53.088;7.392;2022-09-09T08:19:03;7.88;;;4.75;;
23884;SDS011;12123;53.088;7.392;2022-09-09T08:21:31;10.32;;;5.55;;
23884;SDS011;12123;53.088;7.392;2022-09-09T08:23:59;8.43;;;4.43;;
23884;SDS011;12123;53.088;7.392;2022-09-09T08:26:31;8.30;;;4.88;;
23884;SDS011;12123;53.088;7.392;2022-09-09T08:29:00;7.30;;;3.97;;
23884;SDS011;12123;53.088;7.392;2022-09-09T08:31:29;12.45;;;5.22;;
23884;SDS011;12123;53.088;7.392;2022-09-09T08:33:57;7.78;;;4.75;;
23884;SDS011;12123;53.088;7.392;2022-09-09T08:36:30;7.30;;;4.85;;
23884;SDS011;12123;53.088;7.392;2022-09-09T08:38:59;11.88;;;4.78;;
23884;SDS011;12123;53.088;7.392;2022-09-09T08:44:15;8.63;;;4.28;;
23884;SDS011;12123;53.088;7.392;2022-09-09T08:46:46;9.52;;;4.40;;
23884;SDS011;12123;53.088;7.392;2022-09-09T08:49:29;7.57;;;4.00;;
23884;SDS011;12123;53.088;7.392;2022-09-09T08:52:03;11.00;;;4.88;;
23884;SDS011;12123;53.088;7.392;2022-09-09T08:54:34;5.80;;;4.05;;
23884;SDS011;12123;53.088;7.392;2022-09-09T08:57:25;9.20;;;3.63;;
23884;SDS011;12123;53.088;7.392;2022-09-09T08:59:54;6.43;;;3.17;;
23884;SDS011;12123;53.088;7.392;2022-09-09T09:10:09;5.07;;;2.80;;
23884;SDS011;12123;53.088;7.392;2022-09-09T09:12:59;6.15;;;3.20;;
23884;SDS011;12123;53.088;7.392;2022-09-09T09:15:31;10.88;;;3.17;;
23884;SDS011;12123;53.088;7.392;2022-09-09T09:18:03;8.52;;;3.20;;
23884;SDS011;12123;53.088;7.392;2022-09-09T09:20:50;10.20;;;3.10;;
23884;SDS011;12123;53.088;7.392;2022-09-09T09:23:21;7.20;;;2.72;;
23884;SDS011;12123;53.088;7.392;2022-09-09T09:25:48;8.30;;;2.58;;
23884;SDS011;12123;53.088;7.392;2022-09-09T09:28:18;6.35;;;2.40;;
23884;SDS011;12123;53.088;7.392;2022-09-09T09:33:23;7.50;;;2.55;;
23884;SDS011;12123;53.088;7.392;2022-09-09T09:35:51;7.80;;;2.58;;
23884;SDS011;12123;53.088;7.392;2022-09-09T09:38:24;7.75;;;2.78;;
23884;SDS011;12123;53.088;7.392;2022-09-09T09:41:11;8.95;;;2.78;;
23884;SDS011;12123;53.088;7.392;2022-09-09T09:43:39;6.95;;;2.85;;
23884;SDS011;12123;53.088;7.392;2022-09-09T09:46:21;6.70;;;2.33;;
23884;SDS011;12123;53.088;7.392;2022-09-09T09:48:56;9.30;;;2.20;;
23884;SDS011;12123;53.088;7.392;2022-09-09T09:51:24;5.45;;;2.13;;
23884;SDS011;12123;53.088;7.392;2022-09-09T09:53:52;7.63;;;2.28;;
23884;SDS011;12123;53.088;7.392;2022-09-09T09:56:26;8.02;;;1.95;;
23884;SDS011;12123;53.088;7.392;2022-09-09T09:58:57;9.57;;;2.38;;
23884;SDS011;12123;53.088;7.392;2022-09-09T10:01:26;6.55;;;2.38;;
23884;SDS011;12123;53.088;7.392;2022-09-09T10:03:54;8.65;;;1.90;;
23884;SDS011;12123;53.088;7.392;2022-09-09T10:06:34;8.85;;;2.58;;
23884;SDS011;12123;53.088;7.392;2022-09-09T10:09:02;9.90;;;2.05;;
23884;SDS011;12123;53.088;7.392;2022-09-09T10:11:35;12.07;;;3.63;;
23884;SDS011;12123;53.088;7.392;2022-09-09T10:19:12;10.82;;;2.28;;
23884;SDS011;12123;53.088;7.392;2022-09-09T10:34:48;6.55;;;1.70;;
23884;SDS011;12123;53.088;7.392;2022-09-09T10:42:53;9.23;;;2.05;;
23884;SDS011;12123;53.088;7.392;2022-09-09T10:45:37;8.68;;;1.77;;
23884;SDS011;12123;53.088;7.392;2022-09-09T10:48:53;9.02;;;1.50;;
23884;SDS011;12123;53.088;7.392;2022-09-09T10:56:18;10.25;;;1.75;;
23884;SDS011;12123;53.088;7.392;2022-09-09T11:01:31;6.35;;;1.80;;
23884;SDS011;12123;53.088;7.392;2022-09-09T11:04:44;7.28;;;1.88;;
23884;SDS011;12123;53.088;7.392;2022-09-09T11:06:54;6.63;;;1.73;;
23884;SDS011;12123;53.088;7.392;2022-09-09T11:09:27;8.40;;;1.85;;
23884;SDS011;12123;53.088;7.392;2022-09-09T11:11:56;8.98;;;2.35;;
23884;SDS011;12123;53.088;7.392;2022-09-09T11:17:06;7.13;;;1.80;;
23884;SDS011;12123;53.088;7.392;2022-09-09T11:24:49;6.60;;;1.58;;
23884;SDS011;12123;53.088;7.392;2022-09-09T11:33:06;8.88;;;1.75;;
23884;SDS011;12123;53.088;7.392;2022-09-09T11:35:40;10.80;;;2.60;;
23884;SDS011;12123;53.088;7.392;2022-09-09T11:40:37;7.78;;;2.08;;
23884;SDS011;12123;53.088;7.392;2022-09-09T11:43:09;5.50;;;1.33;;
23884;SDS011;12123;53.088;7.392;2022-09-09T11:45:39;8.57;;;2.05;;
23884;SDS011;12123;53.088;7.392;2022-09-09T11:48:23;7.18;;;1.98;;
23884;SDS011;12123;53.088;7.392;2022-09-09T11:51:02;8.00;;;1.77;;
23884;SDS011;12123;53.088;7.392;2022-09-09T11:53:31;8.57;;;2.10;;
23884;SDS011;12123;53.088;7.392;2022-09-09T11:56:03;7.78;;;2.13;;
23884;SDS011;12123;53.088;7.392;2022-09-09T11:58:33;6.82;;;2.00;;
23884;SDS011;12123;53.088;7.392;2022-09-09T12:01:14;8.05;;;1.70;;
23884;SDS011;12123;53.088;7.392;2022-09-09T12:03:45;8.18;;;1.60;;
23884;SDS011;12123;53.088;7.392;2022-09-09T12:06:15;8.45;;;1.70;;
23884;SDS011;12123;53.088;7.392;2022-09-09T12:08:45;6.35;;;1.77;;
23884;SDS011;12123;53.088;7.392;2022-09-09T12:11:23;6.55;;;1.58;;
23884;SDS011;12123;53.088;7.392;2022-09-09T12:13:54;11.13;;;1.75;;
23884;SDS011;12123;53.088;7.392;2022-09-09T12:16:29;8.02;;;1.98;;
23884;SDS011;12123;53.088;7.392;2022-09-09T12:19:15;7.53;;;1.63;;
23884;SDS011;12123;53.088;7.392;2022-09-09T12:21:51;5.13;;;1.42;;
23884;SDS011;12123;53.088;7.392;2022-09-09T12:24:29;6.05;;;1.42;;
23884;SDS011;12123;53.088;7.392;2022-09-09T12:27:01;8.65;;;2.75;;
23884;SDS011;12123;53.088;7.392;2022-09-09T12:29:51;8.60;;;2.20;;
23884;SDS011;12123;53.088;7.392;2022-09-09T12:32:24;9.10;;;1.67;;
23884;SDS011;12123;53.088;7.392;2022-09-09T12:37:35;5.65;;;1.98;;
23884;SDS011;12123;53.088;7.392;2022-09-09T12:40:06;11.60;;;2.00;;
23884;SDS011;12123;53.088;7.392;2022-09-09T12:42:45;9.05;;;1.65;;
23884;SDS011;12123;53.088;7.392;2022-09-09T12:45:22;10.93;;;2.25;;
23884;SDS011;12123;53.088;7.392;2022-09-09T12:47:54;8.35;;;1.65;;
23884;SDS011;12123;53.088;7.392;2022-09-09T12:50:27;4.82;;;1.17;;
23884;SDS011;12123;53.088;7.392;2022-09-09T12:52:56;9.10;;;1.88;;
23884;SDS011;12123;53.088;7.392;2022-09-09T12:55:27;4.28;;;1.02;;
23884;SDS011;12123;53.088;7.392;2022-09-09T12:57:56;7.88;;;1.60;;
23884;SDS011;12123;53.088;7.392;2022-09-09T13:00:25;6.55;;;1.73;;
23884;SDS011;12123;53.088;7.392;2022-09-09T13:02:55;11.48;;;2.08;;
23884;SDS011;12123;53.088;7.392;2022-09-09T13:05:23;6.05;;;1.40;;
23884;SDS011;12123;53.088;7.392;2022-09-09T13:07:51;5.50;;;1.17;;
23884;SDS011;12123;53.088;7.392;2022-09-09T13:10:24;7.20;;;1.20;;
23884;SDS011;12123;53.088;7.392;2022-09-09T13:13:13;8.80;;;1.63;;
23884;SDS011;12123;53.088;7.392;2022-09-09T13:15:47;7.30;;;1.30;;
23884;SDS011;12123;53.088;7.392;2022-09-09T13:18:15;5.80;;;1.38;;
23884;SDS011;12123;53.088;7.392;2022-09-09T13:20:47;12.00;;;1.38;;
23884;SDS011;12123;53.088;7.392;2022-09-09T13:23:15;5.85;;;1.33;;
23884;SDS011;12123;53.088;7.392;2022-09-09T13:25:52;8.73;;;1.23;;
23884;SDS011;12123;53.088;7.392;2022-09-09T13:28:20;3.78;;;1.27;;
23884;SDS011;12123;53.088;7.392;2022-09-09T13:30:59;5.63;;;1.25;;
23884;SDS011;12123;53.088;7.392;2022-09-09T13:33:32;3.25;;;0.95;;
23884;SDS011;12123;53.088;7.392;2022-09-09T13:36:07;2.20;;;1.00;;
23884;SDS011;12123;53.088;7.392;2022-09-09T13:41:06;4.57;;;1.25;;
23884;SDS011;12123;53.088;7.392;2022-09-09T13:43:35;6.07;;;1.40;;
23884;SDS011;12123;53.088;7.392;2022-09-09T13:46:25;5.60;;;1.30;;
23884;SDS011;12123;53.088;7.392;2022-09-09T13:48:54;6.18;;;1.00;;
23884;SDS011;12123;53.088;7.392;2022-09-09T13:51:28;4.10;;;1.10;;
23884;SDS011;12123;53.088;7.392;2022-09-09T13:53:56;5.43;;;1.00;;
23884;SDS011;12123;53.088;7.392;2022-09-09T13:56:25;6.97;;;1.40;;
23884;SDS011;12123;53.088;7.392;2022-09-09T13:58:52;3.30;;;1.10;;
23884;SDS011;12123;53.088;7.392;2022-09-09T14:01:19;6.07;;;1.50;;
23884;SDS011;12123;53.088;7.392;2022-09-09T14:03:52;8.32;;;1.45;;
23884;SDS011;12123;53.088;7.392;2022-09-09T14:06:20;4.55;;;1.50;;
23884;SDS011;12123;53.088;7.392;2022-09-09T14:08:50;5.25;;;1.08;;
23884;SDS011;12123;53.088;7.392;2022-09-09T14:11:18;5.93;;;1.17;;
23884;SDS011;12123;53.088;7.392;2022-09-09T14:13:45;3.85;;;0.73;;
23884;SDS011;12123;53.088;7.392;2022-09-09T14:16:12;3.58;;;0.80;;
23884;SDS011;12123;53.088;7.392;2022-09-09T14:18:40;5.80;;;0.95;;
23884;SDS011;12123;53.088;7.392;2022-09-09T14:21:07;3.92;;;0.80;;
23884;SDS011;12123;53.088;7.392;2022-09-09T14:23:35;4.05;;;0.75;;
23884;SDS011;12123;53.088;7.392;2022-09-09T14:26:02;1.83;;;0.57;;
23884;SDS011;12123;53.088;7.392;2022-09-09T14:28:29;3.75;;;0.80;;
23884;SDS011;12123;53.088;7.392;2022-09-09T14:31:17;3.55;;;1.25;;
23884;SDS011;12123;53.088;7.392;2022-09-09T14:33:44;4.07;;;1.08;;
23884;SDS011;12123;53.088;7.392;2022-09-09T14:36:12;2.58;;;0.98;;
23884;SDS011;12123;53.088;7.392;2022-09-09T14:38:39;5.18;;;1.65;;
23884;SDS011;12123;53.088;7.392;2022-09-09T14:41:11;4.43;;;0.98;;
23884;SDS011;12123;53.088;7.392;2022-09-09T14:43:38;3.83;;;1.00;;
23884;SDS011;12123;53.088;7.392;2022-09-09T14:46:06;2.97;;;1.10;;
23884;SDS011;12123;53.088;7.392;2022-09-09T14:48:34;6.30;;;1.23;;
23884;SDS011;12123;53.088;7.392;2022-09-09T14:51:08;4.45;;;1.27;;
23884;SDS011;12123;53.088;7.392;2022-09-09T14:53:36;4.05;;;1.30;;
23884;SDS011;12123;53.088;7.392;2022-09-09T14:56:05;6.07;;;1.30;;
23884;SDS011;12123;53.088;7.392;2022-09-09T14:58:32;7.05;;;1.23;;
23884;SDS011;12123;53.088;7.392;2022-09-09T15:01:04;7.28;;;1.20;;
23884;SDS011;12123;53.088;7.392;2022-09-09T15:03:31;3.63;;;1.00;;
23884;SDS011;12123;53.088;7.392;2022-09-09T15:06:04;4.88;;;1.15;;
23884;SDS011;12123;53.088;7.392;2022-09-09T15:08:31;4.85;;;1.02;;
23884;SDS011;12123;53.088;7.392;2022-09-09T15:10:59;5.63;;;1.58;;
23884;SDS011;12123;53.088;7.392;2022-09-09T15:13:27;4.28;;;1.13;;
23884;SDS011;12123;53.088;7.392;2022-09-09T15:15:54;6.05;;;1.10;;
23884;SDS011;12123;53.088;7.392;2022-09-09T15:18:21;5.05;;;0.95;;
23884;SDS011;12123;53.088;7.392;2022-09-09T15:20:49;4.38;;;1.35;;
23884;SDS011;12123;53.088;7.392;2022-09-09T15:23:17;4.57;;;1.27;;
23884;SDS011;12123;53.088;7.392;2022-09-09T15:25:51;6.55;;;1.35;;
23884;SDS011;12123;53.088;7.392;2022-09-09T15:28:18;4.78;;;1.60;;
23884;SDS011;12123;53.088;7.392;2022-09-09T15:30:48;5.47;;;0.98;;
23884;SDS011;12123;53.088;7.392;2022-09-09T15:33:16;5.28;;;1.13;;
23884;SDS011;12123;53.088;7.392;2022-09-09T15:35:43;8.38;;;1.10;;
23884;SDS011;12123;53.088;7.392;2022-09-09T15:38:10;4.85;;;1.40;;
23884;SDS011;12123;53.088;7.392;2022-09-09T15:40:39;4.10;;;1.00;;
23884;SDS011;12123;53.088;7.392;2022-09-09T15:43:06;2.97;;;0.82;;
23884;SDS011;12123;53.088;7.392;2022-09-09T15:45:35;4.50;;;1.30;;
23884;SDS011;12123;53.088;7.392;2022-09-09T15:48:03;7.55;;;1.08;;
23884;SDS011;12123;53.088;7.392;2022-09-09T15:50:30;4.32;;;1.30;;
23884;SDS011;12123;53.088;7.392;2022-09-09T15:52:59;5.03;;;1.25;;
23884;SDS011;12123;53.088;7.392;2022-09-09T15:55:26;3.33;;;0.90;;
23884;SDS011;12123;53.088;7.392;2022-09-09T15:57:53;5.63;;;0.88;;
23884;SDS011;12123;53.088;7.392;2022-09-09T16:00:21;4.50;;;0.95;;
23884;SDS011;12123;53.088;7.392;2022-09-09T16:02:49;1.45;;;0.30;;
23884;SDS011;12123;53.088;7.392;2022-09-09T16:05:17;2.58;;;0.88;;
23884;SDS011;12123;53.088;7.392;2022-09-09T16:07:44;1.08;;;0.55;;
23884;SDS011;12123;53.088;7.392;2022-09-09T16:10:12;1.38;;;0.57;;
23884;SDS011;12123;53.088;7.392;2022-09-09T16:12:39;2.42;;;0.60;;
23884;SDS011;12123;53.088;7.392;2022-09-09T16:15:07;0.17;;;0.13;;
23884;SDS011;12123;53.088;7.392;2022-09-09T16:17:34;0.85;;;0.20;;
23884;SDS011;12123;53.088;7.392;2022-09-09T16:20:04;1.75;;;0.50;;
23884;SDS011;12123;53.088;7.392;2022-09-09T16:22:34;1.20;;;0.38;;
23884;SDS011;12123;53.088;7.392;2022-09-09T16:25:01;4.63;;;0.50;;
23884;SDS011;12123;53.088;7.392;2022-09-09T16:27:28;1.75;;;0.82;;
23884;SDS011;12123;53.088;7.392;2022-09-09T16:29:56;1.70;;;0.38;;
23884;SDS011;12123;53.088;7.392;2022-09-09T16:32:23;1.40;;;0.63;;
23884;SDS011;12123;53.088;7.392;2022-09-09T16:34:50;2.40;;;0.65;;
23884;SDS011;12123;53.088;7.392;2022-09-09T16:37:17;0.95;;;0.52;;
23884;SDS011;12123;53.088;7.392;2022-09-09T16:39:45;2.15;;;0.50;;
23884;SDS011;12123;53.088;7.392;2022-09-09T16:42:12;1.95;;;0.45;;
23884;SDS011;12123;53.088;7.392;2022-09-09T16:44:39;1.38;;;0.50;;
23884;SDS011;12123;53.088;7.392;2022-09-09T16:47:07;1.80;;;0.82;;
23884;SDS011;12123;53.088;7.392;2022-09-09T16:49:34;3.83;;;0.70;;
23884;SDS011;12123;53.088;7.392;2022-09-09T16:52:02;2.00;;;0.50;;
23884;SDS011;12123;53.088;7.392;2022-09-09T16:54:29;1.55;;;0.40;;
23884;SDS011;12123;53.088;7.392;2022-09-09T16:56:56;5.22;;;0.85;;